Latest Weather Observations for Fortescue Dave Forrest

IDW60801

Issued at 10:05 am WST Saturday 19 April 2014 (issued every 30 minutes, with the page automatically refreshed every 10 minutes)

About weather observations | Map of weather stations | Latest weather observations for WA | Other Formats
Station Details ID: 505056 Name: FORTESCUE DAVE FORREST Lat: -22.29 Lon: 119.43 Height: 474.6 m
Data from the previous 72 hours. | See also: Recent months for locations in Western Australia
Date/Time
WST
Temp
°C
App
Temp
°C
Dew
Point
Rel
Hum
%
Delta-T
°C
Wind Press
QNH
hPa
Press
MSL
hPa
Rain
since 9 am
mm
Dir
 
Spd
km/h
Gust
km/h
Spd
kts
Gust
kts
19/10:00am 30.5 27.5 2.3 16 14.3 ESE 7 15 4 8 1017.8 1015.1 0.0
19/09:30am 29.9 27.4 1.8 16 14.1 ENE 4 13 2 7 1018.3 - 0.0
19/09:00am 27.4 25.5 5.0 24 11.7 ESE 4 7 2 4 1018.5 1015.8 0.0
19/08:30am 24.6 23.1 6.6 31 9.5 WSW 4 6 2 3 1018.4 - 0.0
19/08:00am 22.2 21.0 6.5 36 8.2 N 2 2 1 1 1018.3 1015.6 0.0
19/07:30am 19.3 17.7 6.4 43 6.6 WSW 4 6 2 3 1018.1 - 0.0
19/07:00am 18.4 16.9 5.0 41 6.6 SE 2 4 1 2 1017.7 1015.0 0.0
19/06:30am 15.9 13.2 3.8 44 5.7 SE 7 7 4 4 1017.5 - 0.0
19/06:00am 16.6 14.4 3.5 41 6.2 S 4 6 2 3 1017.3 1014.6 0.0
19/05:30am 16.4 14.5 3.0 40 6.3 NE 2 4 1 2 1017.1 - 0.0
19/05:00am 17.5 15.7 3.5 39 6.7 ENE 2 6 1 3 1017.0 1014.3 0.0
19/04:30am 18.0 15.6 4.3 40 6.7 NE 6 9 3 5 1017.1 - 0.0
19/04:00am 18.0 16.5 4.8 41 6.5 NNW 2 7 1 4 1017.4 1014.7 0.0
19/03:30am 19.2 17.0 3.4 35 7.6 S 4 4 2 2 1017.4 - 0.0
19/03:03am 19.5 17.3 3.3 34 7.8 WNW 4 9 2 5 1017.4 - 0.0
19/03:00am 19.3 16.7 3.1 34 7.8 WNW 6 13 3 7 1017.4 1014.7 0.0
19/02:42am 20.3 17.5 1.9 29 8.7 S 6 9 3 5 1017.3 - 0.0
19/02:30am 20.1 17.0 1.6 29 8.7 S 7 11 4 6 1017.2 - 0.0
19/02:00am 22.2 19.1 1.2 25 9.9 E 7 11 4 6 1017.2 1014.5 0.0
19/01:30am 21.8 19.2 1.2 25 9.7 SE 4 9 2 5 1017.5 - 0.0
19/01:00am 21.9 19.0 1.3 25 9.7 ENE 6 7 3 4 1017.7 1015.0 0.0
19/12:30am 23.0 20.4 1.2 23 10.4 E 4 7 2 4 1017.8 - 0.0
19/12:00am 24.1 21.0 1.4 22 10.9 NE 7 9 4 5 1018.1 1015.4 0.0
 
Date/Time
WST
Temp
°C
App
Temp
°C
Dew
Point
Rel
Hum
%
Delta-T
°C
Wind Press
QNH
hPa
Press
MSL
hPa
Rain
since 9 am
mm
Dir
 
Spd
km/h
Gust
km/h
Spd
kts
Gust
kts
18/11:30pm 22.4 19.9 1.8 25 9.9 NNE 4 6 2 3 1018.2 - 0.0
18/11:00pm 23.0 20.9 1.7 24 10.2 NE 2 6 1 3 1018.4 1015.7 0.0
18/10:30pm 22.6 20.6 2.4 26 9.8 N 2 6 1 3 1018.6 - 0.0
18/10:00pm 21.9 19.1 2.9 28 9.2 NNE 7 9 4 5 1018.7 1016.0 0.0
18/09:30pm 22.3 19.6 2.8 27 9.5 N 6 7 3 4 1018.8 - 0.0
18/09:00pm 22.6 20.8 3.6 29 9.4 NNW 2 4 1 2 1018.7 1016.0 0.0
18/08:30pm 24.5 22.3 3.4 25 10.5 E 4 7 2 4 1018.4 - 0.0
18/08:00pm 25.6 23.4 3.1 23 11.3 SE 4 6 2 3 1018.0 1015.2 0.0
18/07:30pm 26.5 24.2 2.8 21 11.9 E 4 6 2 3 1017.5 - 0.0
18/07:00pm 28.6 25.9 2.8 19 13.1 ESE 6 6 3 3 1017.2 1014.5 0.0
18/06:30pm 29.7 27.4 2.6 17 13.8 ESE 4 6 2 3 1016.9 - 0.0
18/06:00pm 29.2 26.5 2.7 18 13.5 SSE 6 9 3 5 1016.5 1013.8 0.0
18/05:30pm 31.7 28.4 2.3 15 15.1 E 9 15 5 8 1016.2 - 0.0
18/05:00pm 32.4 28.6 2.0 14 15.6 ENE 11 19 6 10 1016.0 1013.2 0.0
18/04:30pm 32.9 28.3 1.6 13 16.0 ESE 15 22 8 12 1015.8 - 0.0
18/04:00pm 32.8 29.8 2.2 14 15.8 ENE 7 15 4 8 1015.7 1012.9 0.0
18/03:30pm 33.3 29.2 2.4 14 16.0 E 13 26 7 14 1015.7 - 0.0
18/03:00pm 33.4 28.5 1.7 13 16.3 E 17 28 9 15 1015.8 1013.0 0.0
18/02:30pm 33.1 28.2 2.2 14 16.0 E 17 30 9 16 1015.9 - 0.0
18/02:00pm 32.7 28.6 2.5 15 15.6 E 13 20 7 11 1016.1 1013.3 0.0
18/01:30pm 32.2 28.6 2.9 15 15.2 NNE 11 19 6 10 1016.3 - 0.0
18/01:00pm 32.5 27.2 3.2 15 15.3 NE 20 33 11 18 1016.4 1013.7 0.0
18/12:30pm 32.5 26.4 2.7 15 15.5 E 24 33 13 18 1016.9 - 0.0
18/12:00pm 31.8 26.7 3.0 16 14.9 E 19 33 10 18 1017.2 1014.5 0.0
18/11:30am 31.3 25.9 2.7 16 14.7 E 20 39 11 21 1017.6 - 0.0
18/11:00am 30.5 24.7 2.1 16 14.4 E 22 35 12 19 1018.3 1015.6 0.0
18/10:30am 30.6 25.0 1.4 15 14.7 E 20 43 11 23 1018.7 - 0.0
18/10:00am 30.5 24.7 2.5 16 14.3 ENE 22 35 12 19 1018.9 1016.2 0.0
18/09:30am 30.0 24.9 3.1 18 13.9 E 19 32 10 17 1019.0 - 0.0
18/09:00am 28.3 24.4 3.6 20 12.7 ESE 13 19 7 10 1019.2 1016.5 0.0
18/08:30am 24.9 22.6 4.6 27 10.4 ESE 6 9 3 5 1019.4 - 0.0
18/08:00am 22.3 19.7 6.0 34 8.4 ESE 9 13 5 7 1019.3 1016.6 0.0
18/07:30am 19.2 17.2 7.3 46 6.2 ESE 7 9 4 5 1019.1 - 0.0
18/07:00am 16.8 15.4 7.4 54 4.8 SE 4 6 2 3 1018.9 1016.2 0.0
18/06:30am 15.5 14.4 6.8 56 4.4 SE 2 2 1 1 1018.7 - 0.0
18/06:00am 16.0 14.4 8.2 60 4.0 SSE 6 7 3 4 1018.6 1015.9 0.0
18/05:30am 16.6 14.8 7.9 56 4.5 SSE 7 11 4 6 1018.5 - 0.0
18/05:00am 16.7 14.8 4.9 45 5.7 SSE 4 6 2 3 1018.2 1015.5 0.0
18/04:30am 17.5 14.8 2.4 36 7.0 SE 6 6 3 3 1018.0 - 0.0
18/04:00am 18.0 15.1 1.5 33 7.6 SSE 6 9 3 5 1018.1 1015.4 0.0
18/03:30am 19.5 16.4 1.1 29 8.5 SSE 7 9 4 5 1018.1 - 0.0
18/03:00am 20.4 16.8 0.8 27 9.0 SE 9 13 5 7 1018.1 1015.4 0.0
18/02:30am 19.2 16.7 1.7 31 8.2 E 4 7 2 4 1018.2 - 0.0
18/02:00am 18.7 16.3 1.9 32 7.8 E 4 6 2 3 1018.3 1015.6 0.0
18/01:30am 19.3 17.1 1.3 30 8.3 ENE 2 6 1 3 1018.3 - 0.0
18/01:00am 19.7 17.1 1.2 29 8.5 NE 4 4 2 2 1018.6 1015.9 0.0
18/12:30am 19.7 17.6 1.4 29 8.5 E 2 4 1 2 1018.7 - 0.0
18/12:00am 20.7 18.1 1.1 27 9.1 E 4 6 2 3 1018.8 1016.1 0.0
 
Date/Time
WST
Temp
°C
App
Temp
°C
Dew
Point
Rel
Hum
%
Delta-T
°C
Wind Press
QNH
hPa
Press
MSL
hPa
Rain
since 9 am
mm
Dir
 
Spd
km/h
Gust
km/h
Spd
kts
Gust
kts
17/11:30pm 21.0 18.0 1.0 26 9.3 ESE 6 9 3 5 1018.9 - 0.0
17/11:00pm 20.8 18.2 1.0 26 9.2 E 4 7 2 4 1018.9 1016.2 0.0
17/10:30pm 21.2 19.0 1.2 26 9.4 ENE 2 6 1 3 1018.8 - 0.0
17/10:00pm 21.7 19.1 0.8 25 9.7 E 4 6 2 3 1018.7 1016.0 0.0
17/09:30pm 22.1 19.6 1.4 25 9.8 ENE 4 6 2 3 1018.7 - 0.0
17/09:00pm 22.8 20.3 1.8 25 10.1 E 4 6 2 3 1018.7 1016.0 0.0
17/08:30pm 23.4 21.3 1.7 24 10.4 NW 2 4 1 2 1018.5 - 0.0
17/08:00pm 24.3 21.9 2.2 23 10.8 ESE 4 7 2 4 1018.2 1015.5 0.0
17/07:30pm 25.3 22.5 3.0 23 11.1 SE 7 9 4 5 1017.8 - 0.0
17/07:00pm 26.4 23.7 2.4 21 11.9 ESE 6 7 3 4 1017.5 1014.8 0.0
17/06:30pm 27.3 24.1 2.8 20 12.3 SE 9 13 5 7 1017.1 - 0.0
17/06:00pm 28.3 24.8 1.2 17 13.3 SE 9 13 5 7 1016.8 1014.1 0.0
17/05:30pm 31.2 27.1 -0.1 13 15.4 ESE 11 17 6 9 1016.4 - 0.0
17/05:00pm 32.1 27.5 -0.9 12 16.1 ESE 13 19 7 10 1016.1 1013.3 0.0
17/04:30pm 32.1 27.6 -0.5 12 16.0 E 13 26 7 14 1015.9 - 0.0
17/04:00pm 32.8 26.9 -0.5 12 16.4 E 20 30 11 16 1015.7 1012.9 0.0
17/03:30pm 32.6 27.4 0.0 12 16.2 E 17 32 9 17 1015.5 - 0.0
17/03:00pm 33.2 27.7 0.4 12 16.5 ESE 19 33 10 18 1015.8 1013.0 0.0
17/02:30pm 32.1 28.4 -0.3 12 16.0 ENE 9 20 5 11 1015.9 - 0.0
17/02:00pm 32.2 26.3 -0.9 12 16.1 ENE 20 32 11 17 1016.2 1013.5 0.0
17/01:30pm 32.0 26.7 -0.5 12 16.0 ENE 17 22 9 12 1016.4 - 0.0
17/01:00pm 31.7 26.5 -0.2 13 15.7 ENE 17 26 9 14 1016.6 1013.9 0.0
17/12:30pm 31.7 25.8 -1.0 12 15.9 E 20 30 11 16 1017.2 - 0.0
17/12:00pm 32.4 26.8 -0.2 12 16.1 SE 19 26 10 14 1017.7 1015.0 0.0
17/11:30am 31.4 26.2 -0.2 13 15.5 ENE 17 26 9 14 1018.4 - 0.0
17/11:00am 30.8 25.0 0.2 14 15.0 E 20 28 11 15 1018.7 1016.0 0.0
17/10:30am 29.9 24.2 0.4 15 14.5 E 20 35 11 19 1019.1 - 0.0
17/10:00am 29.0 22.5 0.5 16 13.9 ENE 24 37 13 20 1019.4 1016.7 0.0
17/09:30am 28.9 22.4 0.2 15 14.0 ENE 24 35 13 19 1019.4 - 0.0
17/09:00am 27.5 23.5 2.9 20 12.4 E 13 20 7 11 1019.5 1016.8 0.0
17/08:30am 24.1 21.3 3.4 26 10.3 ESE 7 11 4 6 1019.5 - 0.0
17/08:00am 21.5 19.3 3.6 31 8.8 ESE 4 6 2 3 1019.5 1016.8 0.0
17/07:30am 18.4 16.9 5.1 41 6.6 SW 2 4 1 2 1019.1 - 0.0
17/07:00am 16.4 14.3 5.7 49 5.3 N 6 9 3 5 1018.8 1016.1 0.0
17/06:30am 14.6 12.6 4.4 50 4.8 SE 4 4 2 2 1018.5 - 0.0
17/06:00am 15.1 13.1 4.6 49 5.0 SE 4 4 2 2 1018.4 1015.7 0.0
17/05:30am 15.4 13.7 5.7 52 4.8 SSE 4 4 2 2 1018.2 - 0.0
17/05:00am 15.7 14.4 5.8 51 4.9 SE 2 4 1 2 1018.1 1015.4 0.0
17/04:30am 15.9 13.6 4.8 47 5.4 SSE 6 6 3 3 1017.7 - 0.0
17/04:00am 16.9 14.8 6.0 48 5.4 SSE 6 7 3 4 1017.6 1014.9 0.0
17/03:30am 17.3 14.5 2.1 36 7.0 SSE 6 6 3 3 1017.5 - 0.0
17/03:00am 18.8 16.0 1.9 32 7.9 SSE 6 7 3 4 1017.5 1014.8 0.0
17/02:30am 17.6 15.2 2.4 36 7.1 SE 4 6 2 3 1017.6 - 0.0
17/02:00am 19.1 17.1 2.1 32 8.0 SE 2 6 1 3 1017.7 1015.0 0.0
17/01:30am 19.0 16.6 2.2 32 7.9 SE 4 6 2 3 1017.8 - 0.0
17/01:00am 18.8 17.2 2.7 34 7.6 CALM 0 2 0 1 1017.8 1015.1 0.0
17/12:30am 19.4 17.5 2.6 32 8.0 ESE 2 6 1 3 1018.0 - 0.0
17/12:00am 19.5 17.1 2.3 32 8.1 ENE 4 6 2 3 1018.0 1015.2 0.0
 
Date/Time
WST
Temp
°C
App
Temp
°C
Dew
Point
Rel
Hum
%
Delta-T
°C
Wind Press
QNH
hPa
Press
MSL
hPa
Rain
since 9 am
mm
Dir
 
Spd
km/h
Gust
km/h
Spd
kts
Gust
kts
16/11:30pm 19.4 17.4 2.5 32 8.0 ENE 2 4 1 2 1018.2 - 0.0
16/11:00pm 20.4 18.5 2.7 31 8.5 E 2 4 1 2 1018.2 1015.5 0.0
16/10:30pm 21.1 19.2 2.7 29 8.9 E 2 6 1 3 1018.4 - 0.0
16/10:00pm 21.9 19.1 2.1 27 9.5 ESE 6 7 3 4 1018.4 1015.7 0.0
16/09:30pm 21.9 19.6 2.9 28 9.2 E 4 6 2 3 1018.2 - 0.0
16/09:00pm 22.2 20.3 2.7 27 9.5 E 2 7 1 4 1017.8 1015.1 0.0
16/08:30pm 23.3 21.4 3.1 26 10.0 ENE 2 6 1 3 1017.6 - 0.0
16/08:00pm 24.2 22.0 3.2 25 10.4 E 4 6 2 3 1017.4 1014.7 0.0
16/07:30pm 24.8 22.1 3.9 25 10.6 ESE 7 9 4 5 1017.0 - 0.0
16/07:00pm 26.1 23.1 4.0 24 11.3 SE 9 15 5 8 1016.6 1013.9 0.0
16/06:30pm 27.2 23.6 2.9 21 12.3 SE 11 19 6 10 1016.3 - 0.0
16/06:00pm 27.9 24.1 1.6 18 13.0 SE 11 15 6 8 1016.0 1013.2 0.0
16/05:30pm 29.7 25.5 1.4 16 14.1 SE 13 20 7 11 1015.8 - 0.0
16/05:00pm 31.2 25.7 0.8 14 15.2 ESE 19 30 10 16 1015.4 1012.7 0.0
16/04:30pm 31.6 26.1 0.4 13 15.5 ESE 19 30 10 16 1015.2 - 0.0
16/04:00pm 31.9 26.2 0.3 13 15.7 ESE 20 32 11 17 1015.1 1012.4 0.0
16/03:30pm 32.0 25.5 0.5 13 15.7 ESE 24 33 13 18 1015.1 - 0.0
16/03:00pm 31.7 26.2 0.9 14 15.4 E 19 33 10 18 1015.3 1012.6 0.0
16/02:30pm 32.2 27.6 1.6 14 15.6 SE 15 32 8 17 1015.4 - 0.0
16/02:00pm 31.9 26.5 1.5 14 15.4 E 19 26 10 14 1015.8 1013.0 0.0
16/01:30pm 31.5 25.6 2.0 15 15.0 ESE 22 37 12 20 1016.1 - 0.0
16/01:00pm 30.4 24.9 2.0 16 14.4 E 20 33 11 18 1016.5 1013.8 0.0
16/12:30pm 30.3 24.4 1.9 16 14.4 E 22 35 12 19 1017.0 - 0.0
16/12:00pm 30.2 23.6 2.1 16 14.2 E 26 35 14 19 1017.7 1015.0 0.0
16/11:30am 29.7 22.7 1.9 17 14.0 E 28 39 15 21 1018.3 - 0.0
16/11:00am 29.7 23.2 2.6 17 13.8 E 26 41 14 22 1018.7 1016.0 0.0
16/10:32am 29.1 22.1 2.0 17 13.6 E 28 48 15 26 1019.0 - 0.0
16/10:30am 29.2 23.1 2.6 18 13.5 E 24 48 13 26 1019.1 - 0.0

Other Formats:

Comma delimited format used in spreadsheet applications
http://www.bom.gov.au/fwo/IDW60801/IDW60801.99736.axf

JavaScript Object Notation format (JSON) in row-major order
http://www.bom.gov.au/fwo/IDW60801/IDW60801.99736.json